Time;durP1;ratioP1;P1;durP2;ratioP2;P2;SDS_P1;SDS_P2;PMS_P1;PMS_P2;Temp;Humidity;BMP_temperature;BMP_pressure;BME280_temperature;BME280_humidity;BME280_pressure;Samples;Min_cycle;Max_cycle;Signal;HPM_P1;HPM_P2
2022/02/10 00:05:05;;;;;;;34.17;15.27;;;;;;;5.96;100.00;102122.31;4970061;28;20260;-73
2022/02/10 00:18:08;;;;;;;26.33;15.03;;;;;;;5.93;100.00;102122.13;4970172;28;20235;-74
2022/02/10 00:20:44;;;;;;;27.80;15.83;;;;;;;5.94;100.00;102116.25;4984843;28;20243;-74
2022/02/10 00:23:35;;;;;;;26.70;14.73;;;;;;;5.99;100.00;102114.84;4972562;28;20284;-74
2022/02/10 00:34:15;;;;;;;29.97;16.27;;;;;;;6.10;100.00;102100.22;4973491;28;20180;-74
2022/02/10 00:40:12;;;;;;;35.50;16.03;;;;;;;6.11;100.00;102092.69;4971989;28;20660;-74
2022/02/10 00:42:10;;;;;;;34.53;16.13;;;;;;;6.13;100.00;102096.19;4969063;28;20227;-74
2022/02/10 00:44:35;;;;;;;32.93;16.37;;;;;;;6.17;100.00;102087.09;4973339;28;20247;-74
2022/02/10 00:47:01;;;;;;;37.50;15.90;;;;;;;6.20;100.00;102087.25;4972220;28;20558;-74
2022/02/10 00:49:26;;;;;;;33.10;18.27;;;;;;;6.21;100.00;102083.94;4971909;28;20180;-74
2022/02/10 00:51:51;;;;;;;37.73;17.83;;;;;;;6.19;100.00;102086.38;4972060;28;20990;-74
2022/02/10 00:54:24;;;;;;;32.67;16.30;;;;;;;6.19;100.00;102083.84;4988292;28;20204;-74
2022/02/10 00:56:50;;;;;;;37.67;16.97;;;;;;;6.22;100.00;102086.53;4971868;28;20192;-74
2022/02/10 00:59:41;;;;;;;35.87;17.73;;;;;;;6.24;100.00;102096.81;4973033;28;20223;-74
2022/02/10 01:32:02;;;;;;;36.30;17.60;;;;;;;6.47;100.00;102056.59;4971145;28;20216;-74
2022/02/10 01:34:28;;;;;;;35.60;17.73;;;;;;;6.49;100.00;102054.16;4970055;28;20262;-74
2022/02/10 01:36:54;;;;;;;35.97;17.77;;;;;;;6.52;100.00;102050.09;4987375;28;20199;-74
2022/02/10 01:39:24;;;;;;;41.17;18.17;;;;;;;6.48;100.00;102038.00;4970559;28;20690;-74
2022/02/10 02:03:32;;;;;;;42.03;21.57;;;;;;;6.60;100.00;102018.31;4970692;28;20235;-74
2022/02/10 02:06:07;;;;;;;44.57;21.30;;;;;;;6.60;100.00;102014.91;4972116;28;20185;-74
2022/02/10 02:08:36;;;;;;;41.40;20.10;;;;;;;6.61;100.00;102003.91;4952494;29;20192;-74
2022/02/10 02:11:02;;;;;;;42.20;20.77;;;;;;;6.62;100.00;102008.19;4967330;28;20268;-74
2022/02/10 02:13:28;;;;;;;40.63;20.60;;;;;;;6.63;100.00;102000.66;4952552;29;20243;-74
2022/02/10 02:15:54;;;;;;;37.10;19.33;;;;;;;6.63;100.00;101994.72;4967092;28;20228;-74
2022/02/10 02:18:19;;;;;;;41.70;20.77;;;;;;;6.64;100.00;101999.00;4950949;29;20225;-74
2022/02/10 02:20:46;;;;;;;39.37;20.13;;;;;;;6.66;100.00;101992.31;4961164;28;20311;-74
2022/02/10 02:23:12;;;;;;;39.13;20.63;;;;;;;6.66;100.00;101982.13;4971500;28;20188;-74
2022/02/10 02:25:37;;;;;;;38.43;19.83;;;;;;;6.66;100.00;101983.03;4986517;28;20186;-74
2022/02/10 02:28:06;;;;;;;38.07;18.87;;;;;;;6.67;100.00;101977.13;4971263;28;20556;-74
2022/02/10 02:30:43;;;;;;;38.40;20.43;;;;;;;6.65;100.00;101977.84;4971157;28;20693;-74
2022/02/10 02:33:53;;;;;;;39.17;20.90;;;;;;;6.65;100.00;101978.72;4971209;28;20263;-74
2022/02/10 03:06:19;;;;;;;41.20;20.30;;;;;;;6.70;100.00;101926.41;4969799;28;20251;-74
2022/02/10 03:08:51;;;;;;;42.13;21.33;;;;;;;6.69;100.00;101924.66;4985715;28;20192;-74
2022/02/10 03:11:18;;;;;;;38.07;21.17;;;;;;;6.66;100.00;101924.50;4969593;28;20211;-74
2022/02/10 03:14:09;;;;;;;42.73;21.07;;;;;;;6.69;100.00;101924.66;4970626;28;20176;-74
2022/02/10 04:16:07;;;;;;;15.70;8.33;;;;;;;6.39;99.93;101834.00;4971137;28;20698;-73
2022/02/10 04:19:10;;;;;;;15.87;7.93;;;;;;;6.40;99.47;101843.38;4972391;28;20200;-74
2022/02/10 04:26:55;;;;;;;14.60;7.57;;;;;;;6.42;99.73;101833.28;4973778;28;20184;-73
2022/02/10 04:29:41;;;;;;;15.27;8.17;;;;;;;6.42;99.66;101826.56;4973386;28;20743;-73
2022/02/10 04:53:50;;;;;;;15.23;7.73;;;;;;;6.34;100.00;101801.50;4973252;28;20192;-73
2022/02/10 04:58:50;;;;;;;16.27;7.63;;;;;;;6.35;99.39;101798.19;4972486;28;20827;-74
2022/02/10 05:01:34;;;;;;;15.63;7.90;;;;;;;6.35;100.00;101796.50;4973230;28;20572;-73
2022/02/10 05:16:55;;;;;;;12.43;7.33;;;;;;;6.29;100.00;101780.94;4971597;28;20315;-73
2022/02/10 05:22:19;;;;;;;12.47;6.97;;;;;;;6.25;99.87;101771.41;4972688;28;20226;-73
2022/02/10 05:33:09;;;;;;;13.17;6.00;;;;;;;6.19;99.68;101766.00;4964027;28;20216;-73
2022/02/10 05:35:41;;;;;;;13.50;6.57;;;;;;;6.23;100.00;101756.88;4954396;28;20220;-73
2022/02/10 05:38:13;;;;;;;12.30;6.33;;;;;;;6.22;99.96;101757.66;4968091;28;20193;-74
2022/02/10 05:46:10;;;;;;;16.07;6.77;;;;;;;6.23;99.94;101750.13;4972507;28;20181;-74
2022/02/10 05:49:03;;;;;;;14.53;7.60;;;;;;;6.26;100.00;101737.53;4972025;28;20267;-73
2022/02/10 05:54:29;;;;;;;14.33;7.60;;;;;;;6.25;100.00;101740.88;4972215;28;20600;-73
2022/02/10 06:02:31;;;;;;;14.30;7.77;;;;;;;6.27;99.95;101729.09;4970652;28;20216;-73
2022/02/10 07:03:07;;;;;;;13.50;8.13;;;;;;;6.17;100.00;101743.84;4972192;28;20236;-74
2022/02/10 07:08:10;;;;;;;12.10;7.87;;;;;;;6.19;100.00;101725.34;4966958;28;20192;-72
2022/02/10 07:11:05;;;;;;;12.13;7.40;;;;;;;6.19;100.00;101727.88;4966937;28;20220;-72
2022/02/10 07:14:43;;;;;;;12.20;7.87;;;;;;;6.19;100.00;101722.78;4955546;28;20207;-73
2022/02/10 07:17:00;;;;;;;11.70;7.20;;;;;;;6.20;100.00;101736.34;4954980;28;20245;-73
2022/02/10 07:54:20;;;;;;;8.83;6.37;;;;;;;6.30;100.00;101739.44;4964939;28;20309;-72
2022/02/10 07:59:43;;;;;;;9.27;6.13;;;;;;;6.34;100.00;101715.03;4963081;28;20228;-73
2022/02/10 08:56:07;;;;;;;13.43;8.30;;;;;;;6.79;99.01;101733.44;4956353;28;20205;-72
2022/02/10 09:04:00;;;;;;;12.87;8.67;;;;;;;6.84;99.68;101734.53;4962540;28;20196;-73
2022/02/10 09:18:12;;;;;;;20.07;12.43;;;;;;;6.77;99.57;101740.13;4960323;28;20198;-72
2022/02/10 09:23:39;;;;;;;21.13;13.43;;;;;;;6.85;99.28;101731.19;4968561;28;20204;-72
2022/02/10 09:26:43;;;;;;;21.37;13.37;;;;;;;6.92;99.09;101720.53;4957848;28;20204;-72
2022/02/10 09:55:47;;;;;;;18.37;10.23;;;;;;;7.28;97.78;101757.88;4967524;28;20232;-73
2022/02/10 09:58:30;;;;;;;15.37;9.83;;;;;;;7.25;98.44;101750.13;4958872;28;20193;-73
2022/02/10 10:02:01;;;;;;;14.10;8.97;;;;;;;7.35;97.77;101743.75;4965166;28;20237;-73
2022/02/10 10:04:20;;;;;;;13.80;8.53;;;;;;;7.62;96.42;101738.28;4964129;28;20196;-72
2022/02/10 10:09:36;;;;;;;11.23;7.57;;;;;;;8.13;94.78;101740.56;4977943;28;20621;-72
2022/02/10 10:50:37;;;;;;;12.10;8.50;;;;;;;7.62;93.47;101710.25;4966278;28;20192;-73
2022/02/10 10:55:40;;;;;;;15.80;9.50;;;;;;;7.62;92.68;101694.94;4964243;28;20220;-72
2022/02/10 10:58:13;;;;;;;12.70;8.97;;;;;;;7.76;92.08;101701.53;4950577;28;20184;-73
2022/02/10 11:01:10;;;;;;;13.93;8.80;;;;;;;7.99;91.64;101703.41;4969616;28;20215;-72
2022/02/10 11:36:23;;;;;;;12.23;6.50;;;;;;;8.08;91.07;101695.28;4940684;29;20189;-73
2022/02/10 11:38:39;;;;;;;10.97;6.90;;;;;;;7.96;90.04;101684.53;4961424;28;20239;-72
2022/02/10 11:41:13;;;;;;;9.93;6.07;;;;;;;7.80;90.80;101697.44;4961812;28;20251;-73
2022/02/10 11:46:51;;;;;;;10.83;7.70;;;;;;;7.81;90.94;101683.88;4967674;28;20226;-72
2022/02/10 13:26:07;;;;;;;6.00;3.83;;;;;;;15.59;53.40;101656.69;4972911;28;20543;-73
2022/02/10 13:29:04;;;;;;;5.33;2.80;;;;;;;14.01;55.52;101666.19;4972168;28;20287;-72
2022/02/10 13:48:12;;;;;;;8.13;3.20;;;;;;;13.47;57.75;101672.81;4972328;28;20224;-72
2022/02/10 14:13:30;;;;;;;7.20;2.50;;;;;;;16.98;45.53;101667.53;4971841;28;20264;-72
2022/02/10 14:16:09;;;;;;;5.37;2.20;;;;;;;15.55;48.53;101675.56;4971694;28;20219;-72
2022/02/10 14:18:35;;;;;;;6.43;2.80;;;;;;;13.82;53.19;101683.81;4971569;28;20602;-72
2022/02/10 14:26:06;;;;;;;8.53;2.27;;;;;;;10.29;63.97;101704.88;4971429;28;20198;-71
2022/02/10 14:28:31;;;;;;;8.90;2.40;;;;;;;10.05;66.96;101709.16;4971258;28;20203;-72
2022/02/10 14:31:04;;;;;;;6.80;2.53;;;;;;;9.94;68.17;101711.28;4968537;28;20228;-72
2022/02/10 14:33:33;;;;;;;6.37;2.63;;;;;;;9.69;68.71;101707.78;4969941;28;20200;-72
2022/02/10 14:36:15;;;;;;;7.43;2.60;;;;;;;9.49;69.19;101712.16;4970056;28;20219;-72
2022/02/10 15:16:49;;;;;;;10.23;2.70;;;;;;;8.41;74.85;101710.34;4970508;28;20231;-72
2022/02/10 15:28:46;;;;;;;8.10;2.67;;;;;;;8.38;75.42;101722.97;4957889;28;20208;-73
2022/02/10 15:31:45;;;;;;;10.10;2.37;;;;;;;8.15;76.68;101721.09;4970564;28;20180;-72
2022/02/10 15:33:39;;;;;;;8.03;2.00;;;;;;;8.05;76.67;101713.88;4963504;28;20199;-72
2022/02/10 15:46:13;;;;;;;5.67;1.70;;;;;;;7.85;76.06;101731.66;4970472;28;20575;-72
2022/02/10 15:49:56;;;;;;;7.20;1.87;;;;;;;7.68;78.33;101736.00;4970236;28;20192;-73
2022/02/10 15:52:38;;;;;;;5.43;1.43;;;;;;;7.29;77.47;101756.22;4970206;28;20220;-71
2022/02/10 16:14:51;;;;;;;6.17;2.27;;;;;;;6.06;86.30;101785.63;4973952;28;20357;-72
2022/02/10 16:17:14;;;;;;;10.10;2.37;;;;;;;5.89;84.96;101783.88;4973652;28;20601;-71
2022/02/10 16:19:41;;;;;;;5.97;1.77;;;;;;;6.26;85.54;101774.81;4973625;28;20330;-75
2022/02/10 16:24:56;;;;;;;5.67;1.67;;;;;;;6.44;80.96;101773.22;4991548;28;20215;-76
2022/02/10 16:27:30;;;;;;;4.03;1.30;;;;;;;6.18;80.54;101769.31;4991602;28;20618;-71
2022/02/10 16:30:02;;;;;;;8.13;1.53;;;;;;;5.94;81.74;101787.53;4992541;28;20207;-71
2022/02/10 16:32:28;;;;;;;4.30;1.57;;;;;;;5.83;84.44;101797.13;4992807;28;20215;-72
2022/02/10 16:34:55;;;;;;;4.93;1.67;;;;;;;5.76;86.24;101806.84;4991107;28;20190;-72
2022/02/10 16:37:21;;;;;;;6.30;1.47;;;;;;;5.63;87.45;101795.16;4997883;28;20270;-73
2022/02/10 16:39:48;;;;;;;5.47;1.70;;;;;;;5.68;88.09;101795.41;4991995;28;20295;-72
2022/02/10 16:42:14;;;;;;;7.20;1.60;;;;;;;5.66;87.97;101795.31;4992158;28;20212;-72
2022/02/10 16:44:40;;;;;;;7.10;1.80;;;;;;;5.66;87.46;101797.84;4990989;28;20206;-72
2022/02/10 16:47:10;;;;;;;7.60;1.83;;;;;;;5.58;87.02;101794.00;4992403;28;20188;-73
2022/02/10 16:49:36;;;;;;;9.97;1.83;;;;;;;5.58;87.40;101799.09;4990625;28;20199;-73
2022/02/10 16:52:01;;;;;;;5.37;1.80;;;;;;;5.56;87.58;101803.22;4990853;28;20219;-72
2022/02/10 16:54:34;;;;;;;7.33;2.00;;;;;;;5.53;87.88;101802.19;4990868;28;20219;-72
2022/02/10 16:59:38;;;;;;;4.37;1.60;;;;;;;5.49;88.23;101808.78;4991478;28;20203;-72
2022/02/10 17:16:50;;;;;;;11.27;2.00;;;;;;;5.44;86.82;101801.69;4991771;28;20618;-72
2022/02/10 17:20:50;;;;;;;10.13;2.20;;;;;;;5.46;85.59;101797.56;4991573;28;20241;-71
2022/02/10 17:26:31;;;;;;;15.10;3.00;;;;;;;5.49;85.44;101802.81;4991488;28;20196;-72
2022/02/10 17:28:59;;;;;;;10.13;2.27;;;;;;;5.51;86.03;101811.38;4990136;28;20241;-72
2022/02/10 17:31:40;;;;;;;12.33;2.00;;;;;;;5.49;85.88;101818.94;4982205;28;20243;-72
2022/02/10 17:37:00;;;;;;;9.97;2.00;;;;;;;5.49;84.50;101821.47;4991298;28;20735;-72
2022/02/10 17:41:29;;;;;;;9.37;2.73;;;;;;;5.47;84.16;101817.97;4991748;28;20183;-71
2022/02/10 17:45:12;;;;;;;12.03;2.47;;;;;;;5.45;85.14;101827.16;4991479;28;20191;-73
2022/02/10 17:53:11;;;;;;;6.67;1.93;;;;;;;5.35;85.28;101834.19;4990936;28;20270;-71
2022/02/10 17:55:36;;;;;;;6.90;2.10;;;;;;;5.33;85.47;101826.47;4989478;28;20685;-72
2022/02/10 17:58:01;;;;;;;8.40;2.23;;;;;;;5.33;85.18;101838.28;4989794;28;20214;-72
2022/02/10 18:00:27;;;;;;;10.07;2.07;;;;;;;5.32;85.38;101842.50;4984031;28;20271;-72
2022/02/10 18:02:59;;;;;;;7.20;2.47;;;;;;;5.30;85.52;101840.69;4989433;28;20195;-72
2022/02/10 18:05:59;;;;;;;10.17;2.37;;;;;;;5.28;85.65;101839.69;4994878;28;20479;-71
2022/02/10 18:08:17;;;;;;;8.70;2.63;;;;;;;5.25;85.60;101837.84;4986189;28;20238;-71
2022/02/10 18:11:20;;;;;;;7.67;2.30;;;;;;;5.26;85.96;101842.19;4990625;28;20242;-72
2022/02/10 18:13:46;;;;;;;11.37;2.63;;;;;;;5.24;85.90;101845.38;4989230;28;20658;-73
2022/02/10 18:16:18;;;;;;;8.97;2.50;;;;;;;5.21;85.89;101846.09;4989756;28;20216;-72
2022/02/10 18:18:52;;;;;;;11.87;2.53;;;;;;;5.20;85.89;101844.34;4988827;28;20187;-72
2022/02/10 18:26:31;;;;;;;10.00;2.50;;;;;;;5.14;86.47;101854.16;4970824;28;20204;-71
2022/02/10 18:29:04;;;;;;;9.63;2.20;;;;;;;5.12;86.49;101854.88;4969225;28;20224;-71
2022/02/10 19:02:11;;;;;;;9.47;2.17;;;;;;;4.81;87.44;101858.94;4966128;28;20227;-71
2022/02/10 19:09:10;;;;;;;13.03;2.83;;;;;;;4.73;87.98;101853.44;4970814;28;20229;-71
2022/02/10 19:11:38;;;;;;;12.90;3.23;;;;;;;4.73;87.85;101853.44;4970961;28;20207;-71
2022/02/10 19:14:06;;;;;;;9.63;2.67;;;;;;;4.74;87.59;101864.47;4971034;28;20200;-71
2022/02/10 19:16:31;;;;;;;8.67;2.73;;;;;;;4.71;88.18;101864.28;4966841;28;20227;-72
2022/02/10 19:18:57;;;;;;;7.93;2.57;;;;;;;4.69;88.58;101864.19;4969396;28;20192;-72
2022/02/10 19:21:22;;;;;;;9.23;2.30;;;;;;;4.67;88.50;101868.31;4969626;28;20216;-72
2022/02/10 19:23:48;;;;;;;13.23;3.10;;;;;;;4.69;88.78;101884.47;4970926;28;20188;-71
2022/02/10 19:26:14;;;;;;;13.63;2.80;;;;;;;4.70;88.63;101876.06;4970830;28;20237;-72
2022/02/10 19:28:40;;;;;;;8.50;2.57;;;;;;;4.69;89.08;101881.94;4976404;28;20197;-72
2022/02/10 19:31:07;;;;;;;9.20;2.40;;;;;;;4.68;88.47;101877.66;4977035;28;20219;-72
2022/02/10 19:33:32;;;;;;;9.57;2.80;;;;;;;4.68;88.90;101880.19;4977074;28;20228;-71
2022/02/10 19:35:58;;;;;;;10.30;2.63;;;;;;;4.62;88.77;101879.84;4992049;28;20702;-71
2022/02/10 19:38:25;;;;;;;11.30;2.77;;;;;;;4.61;89.04;101877.22;4992026;28;20195;-71
2022/02/10 19:40:53;;;;;;;12.33;3.47;;;;;;;4.58;89.02;101882.97;4977089;28;20243;-71
2022/02/10 19:43:20;;;;;;;9.83;2.40;;;;;;;4.54;89.38;101880.16;4975805;28;20192;-71
2022/02/10 19:45:47;;;;;;;11.60;2.93;;;;;;;4.53;89.50;101873.34;4975822;28;20661;-72
2022/02/10 19:48:12;;;;;;;13.37;3.40;;;;;;;4.52;89.20;101876.66;4977072;28;20184;-71
2022/02/10 19:50:38;;;;;;;14.30;3.67;;;;;;;4.48;89.49;101879.78;4976878;28;20220;-71
2022/02/10 19:53:07;;;;;;;11.90;3.40;;;;;;;4.49;89.41;101879.00;4977379;28;20283;-71
2022/02/10 19:55:35;;;;;;;9.47;3.17;;;;;;;4.46;89.39;101892.38;4977169;28;20681;-71
2022/02/10 19:58:04;;;;;;;11.30;3.20;;;;;;;4.47;89.09;101890.72;4976835;28;20284;-72
2022/02/10 20:00:35;;;;;;;14.97;3.23;;;;;;;4.42;89.19;101898.03;4977065;28;20203;-71
2022/02/10 20:03:02;;;;;;;12.27;3.03;;;;;;;4.40;89.69;101899.63;4977091;28;20185;-71
2022/02/10 20:05:28;;;;;;;9.70;3.10;;;;;;;4.36;89.56;101905.28;4977011;28;20188;-72
2022/02/10 20:07:55;;;;;;;9.43;3.30;;;;;;;4.32;90.02;101903.34;4975754;28;20202;-72
2022/02/10 20:10:21;;;;;;;13.33;3.60;;;;;;;4.32;89.71;101900.78;4976969;28;20226;-72
2022/02/10 20:12:47;;;;;;;11.10;3.20;;;;;;;4.30;90.12;101894.78;4962068;28;20679;-71
2022/02/10 20:15:13;;;;;;;10.20;3.53;;;;;;;4.30;90.42;101893.88;4976832;28;20204;-71
2022/02/10 20:17:40;;;;;;;12.43;3.30;;;;;;;4.24;90.03;101889.31;4976685;28;20750;-72
2022/02/10 20:20:07;;;;;;;9.07;3.30;;;;;;;4.19;89.97;101884.75;4976522;28;20215;-71
2022/02/10 20:22:36;;;;;;;11.43;3.67;;;;;;;4.20;89.95;101887.41;4976765;28;20208;-71
2022/02/10 20:25:02;;;;;;;14.63;4.27;;;;;;;4.18;89.94;101883.03;4976826;28;20197;-72
2022/02/10 20:27:27;;;;;;;8.53;2.97;;;;;;;4.18;89.97;101891.47;4976725;28;20257;-71
2022/02/10 20:29:54;;;;;;;11.40;3.20;;;;;;;4.14;89.85;101886.16;4976562;28;20190;-71
2022/02/10 20:32:19;;;;;;;10.63;3.20;;;;;;;4.09;89.50;101887.53;4976626;28;20220;-72
2022/02/10 20:34:44;;;;;;;9.80;3.37;;;;;;;4.09;89.94;101888.38;4976625;28;20196;-71
2022/02/10 20:37:11;;;;;;;12.13;2.80;;;;;;;4.09;90.10;101882.47;4991446;28;20303;-72
2022/02/10 20:39:37;;;;;;;11.00;3.27;;;;;;;4.07;90.18;101891.59;4973524;28;20184;-71
2022/02/10 20:42:06;;;;;;;13.97;3.07;;;;;;;4.07;89.72;101884.88;4973354;28;20231;-71
2022/02/10 20:44:33;;;;;;;13.70;3.20;;;;;;;4.04;89.96;101889.75;4973469;28;20315;-72
2022/02/10 20:46:59;;;;;;;8.87;3.30;;;;;;;4.01;90.36;101896.31;4972216;28;20193;-71
2022/02/10 20:49:27;;;;;;;10.80;3.47;;;;;;;3.96;90.70;101898.53;4973325;28;20204;-71
2022/02/10 20:51:54;;;;;;;8.40;3.37;;;;;;;3.96;90.42;101890.06;4971925;28;20624;-71
2022/02/10 20:54:20;;;;;;;11.77;3.37;;;;;;;3.96;89.80;101892.59;4969842;28;20201;-72
2022/02/10 20:56:46;;;;;;;10.97;3.20;;;;;;;3.96;89.77;101887.53;4970549;28;20220;-72
2022/02/10 21:01:51;;;;;;;13.90;3.20;;;;;;;3.94;89.91;101881.47;4972971;28;20281;-70
2022/02/10 21:04:16;;;;;;;12.30;3.50;;;;;;;3.93;89.88;101889.88;4972952;28;20192;-71
2022/02/10 21:06:57;;;;;;;13.00;3.87;;;;;;;3.92;90.20;101890.66;4972915;28;20558;-71
2022/02/10 21:09:36;;;;;;;11.37;3.60;;;;;;;3.89;90.50;101882.84;4972900;28;20223;-71
2022/02/10 21:12:03;;;;;;;10.80;3.47;;;;;;;3.85;91.00;101884.34;4947254;28;20231;-71
2022/02/10 21:14:29;;;;;;;10.37;3.27;;;;;;;3.82;90.62;101888.34;4970960;28;20279;-72
2022/02/10 21:16:56;;;;;;;10.37;3.90;;;;;;;3.79;91.45;101889.03;4972469;28;20686;-72
2022/02/10 21:19:23;;;;;;;11.70;3.43;;;;;;;3.77;91.59;101885.50;4972354;28;20204;-71
2022/02/10 21:21:49;;;;;;;11.37;4.97;;;;;;;3.73;91.34;101887.75;4972879;28;20215;-70
2022/02/10 21:24:23;;;;;;;13.17;4.20;;;;;;;3.70;91.50;101885.03;4972702;28;20288;-71
2022/02/10 21:29:40;;;;;;;9.87;4.03;;;;;;;3.65;92.18;101881.31;4971164;28;20251;-71
2022/02/10 21:32:05;;;;;;;15.80;4.77;;;;;;;3.63;91.80;101885.44;4972284;28;20311;-71
2022/02/10 21:34:46;;;;;;;11.17;4.33;;;;;;;3.61;92.22;101886.97;4972556;28;20280;-71
2022/02/10 21:37:13;;;;;;;14.63;4.23;;;;;;;3.59;92.58;101888.53;4971124;28;20248;-71
2022/02/10 21:47:55;;;;;;;13.40;4.27;;;;;;;3.59;92.90;101878.41;4972199;28;20183;-71
2022/02/10 21:59:09;;;;;;;8.77;3.50;;;;;;;3.51;92.38;101883.00;4971893;28;20192;-71
2022/02/10 22:04:36;;;;;;;13.07;3.40;;;;;;;3.51;91.83;101882.13;4986770;28;20192;-72
2022/02/10 22:20:15;;;;;;;11.30;3.57;;;;;;;3.38;91.93;101884.63;4990820;28;20292;-72
2022/02/10 22:22:51;;;;;;;18.53;4.87;;;;;;;3.34;92.29;101880.16;4990919;28;20338;-71
2022/02/10 22:25:17;;;;;;;14.33;4.90;;;;;;;3.33;92.15;101883.47;4991013;28;20194;-72
2022/02/10 22:27:47;;;;;;;20.60;4.73;;;;;;;3.31;91.84;101880.81;4990819;28;20184;-72
2022/02/10 22:30:27;;;;;;;9.17;3.13;;;;;;;3.33;91.67;101884.34;4991177;28;20179;-71
2022/02/10 22:33:16;;;;;;;11.43;3.07;;;;;;;3.33;91.80;101888.53;4990982;28;20195;-72
2022/02/10 22:35:41;;;;;;;12.77;3.53;;;;;;;3.37;91.50;101880.34;5006084;28;20216;-71
2022/02/10 22:38:07;;;;;;;11.10;3.43;;;;;;;3.37;91.55;101895.53;4990562;28;20563;-71
2022/02/10 22:40:58;;;;;;;17.23;3.20;;;;;;;3.41;91.78;101890.75;4990295;28;20192;-71
2022/02/10 22:43:23;;;;;;;16.17;3.80;;;;;;;3.44;91.80;101885.00;4989278;28;20688;-72
2022/02/10 22:45:49;;;;;;;8.60;3.00;;;;;;;3.43;91.45;101886.69;4990627;28;20191;-71
2022/02/10 22:48:14;;;;;;;8.93;3.07;;;;;;;3.47;90.78;101888.66;4989062;28;20198;-71
2022/02/10 22:50:39;;;;;;;19.20;3.00;;;;;;;3.49;90.79;101886.22;4990664;28;20211;-72
2022/02/10 22:53:06;;;;;;;14.50;3.03;;;;;;;3.44;91.18;101882.47;4990536;28;20196;-71
2022/02/10 22:55:32;;;;;;;8.47;2.57;;;;;;;3.47;90.96;101881.03;4988975;28;20378;-71
2022/02/10 22:57:57;;;;;;;8.40;2.80;;;;;;;3.48;91.24;101880.25;4990150;28;20267;-71
2022/02/10 23:00:30;;;;;;;11.37;2.80;;;;;;;3.46;90.74;101874.25;4988932;28;20549;-73
2022/02/10 23:02:56;;;;;;;11.20;2.87;;;;;;;3.46;90.99;101869.19;4989936;28;20624;-72
2022/02/10 23:05:23;;;;;;;13.83;3.17;;;;;;;3.50;91.23;101876.16;4990333;28;20215;-71
2022/02/10 23:07:54;;;;;;;16.70;3.43;;;;;;;3.50;91.10;101875.31;4990151;28;20196;-71
2022/02/10 23:12:45;;;;;;;12.47;2.63;;;;;;;3.53;91.22;101875.47;4975021;28;20330;-71
2022/02/10 23:15:10;;;;;;;11.20;2.53;;;;;;;3.49;90.90;101869.34;4989998;28;20241;-71
2022/02/10 23:17:36;;;;;;;8.93;2.67;;;;;;;3.52;90.54;101864.50;4990126;28;20187;-71
2022/02/10 23:20:03;;;;;;;17.03;2.90;;;;;;;3.51;90.96;101866.91;4989868;28;20199;-72
2022/02/10 23:22:28;;;;;;;15.80;3.77;;;;;;;3.47;90.92;101875.97;4989990;28;20219;-71
2022/02/10 23:24:53;;;;;;;8.97;2.87;;;;;;;3.50;91.31;101875.31;4988723;28;20207;-71
2022/02/10 23:27:19;;;;;;;13.67;3.20;;;;;;;3.53;90.46;101873.84;4988771;28;20304;-71
2022/02/10 23:29:44;;;;;;;10.03;2.90;;;;;;;3.49;90.91;101869.34;4989746;28;20226;-71
2022/02/10 23:32:11;;;;;;;10.83;2.43;;;;;;;3.44;90.92;101869.81;5021312;28;20219;-72
2022/02/10 23:34:37;;;;;;;12.47;2.60;;;;;;;3.51;90.93;101875.41;4990070;28;20237;-71
2022/02/10 23:37:02;;;;;;;9.50;3.30;;;;;;;3.51;90.53;101871.97;5004460;28;20318;-70
2022/02/10 23:39:31;;;;;;;14.07;2.73;;;;;;;3.57;90.48;101869.84;4989500;28;20200;-71
2022/02/10 23:44:27;;;;;;;15.57;3.20;;;;;;;3.54;90.56;101874.72;4980430;28;20183;-70
2022/02/10 23:46:53;;;;;;;14.93;2.90;;;;;;;3.52;90.82;101876.25;4989978;28;20187;-70
2022/02/10 23:49:20;;;;;;;11.83;3.23;;;;;;;3.52;90.85;101866.13;4969850;28;20614;-70
2022/02/10 23:51:54;;;;;;;11.17;2.73;;;;;;;3.58;91.01;101866.53;4997280;28;20211;-71
2022/02/10 23:54:19;;;;;;;11.63;2.53;;;;;;;3.57;90.32;101860.59;4975179;28;20250;-70
2022/02/10 23:56:51;;;;;;;10.53;3.27;;;;;;;3.56;90.27;101856.31;4990715;28;20212;-71
2022/02/10 23:59:28;;;;;;;12.83;3.13;;;;;;;3.56;90.21;101858.84;4985055;28;20192;-70
